createdAt,value
2022-12-08T00:00:40.809Z,13.83
2022-12-08T00:03:12.838Z,12.00
2022-12-08T00:06:07.974Z,13.23
2022-12-08T00:08:58.399Z,16.97
2022-12-08T00:11:30.145Z,10.63
2022-12-08T00:14:01.944Z,18.70
2022-12-08T00:16:33.725Z,16.27
2022-12-08T00:19:05.463Z,12.83
2022-12-08T00:21:37.142Z,15.70
2022-12-08T00:24:09.150Z,14.00
2022-12-08T00:26:40.980Z,16.23
2022-12-08T00:29:17.341Z,11.80
2022-12-08T00:31:50.280Z,15.67
2022-12-08T00:34:22.032Z,10.73
2022-12-08T00:36:53.767Z,14.37
2022-12-08T00:39:25.627Z,14.23
2022-12-08T00:42:12.638Z,15.30
2022-12-08T00:44:45.918Z,14.13
2022-12-08T00:47:22.114Z,14.57
2022-12-08T00:49:56.285Z,13.83
2022-12-08T00:52:27.989Z,13.30
2022-12-08T00:54:59.735Z,13.60
2022-12-08T00:57:32.140Z,19.13
2022-12-08T01:00:04.673Z,14.43
2022-12-08T01:02:36.570Z,15.27
2022-12-08T01:05:08.643Z,15.63
2022-12-08T01:07:40.509Z,14.83
2022-12-08T01:10:12.411Z,17.40
2022-12-08T01:12:44.199Z,14.83
2022-12-08T01:15:16.046Z,20.37
2022-12-08T01:17:47.773Z,11.37
2022-12-08T01:20:19.490Z,20.00
2022-12-08T01:22:51.207Z,17.20
2022-12-08T01:25:23.110Z,15.77
2022-12-08T01:27:54.821Z,12.87
2022-12-08T01:30:26.722Z,17.10
2022-12-08T01:32:59.012Z,14.13
2022-12-08T01:35:30.732Z,14.90
2022-12-08T01:38:02.442Z,20.40
2022-12-08T01:40:34.179Z,21.53
2022-12-08T01:43:06.149Z,19.90
2022-12-08T01:45:37.961Z,20.30
2022-12-08T01:48:22.978Z,22.93
2022-12-08T01:50:56.086Z,18.73
2022-12-08T01:53:32.814Z,17.20
2022-12-08T01:56:13.649Z,23.27
2022-12-08T01:58:49.470Z,18.33
2022-12-08T02:01:21.499Z,22.03
2022-12-08T02:04:02.445Z,19.07
2022-12-08T02:06:38.605Z,19.40
2022-12-08T02:09:10.955Z,23.87
2022-12-08T02:11:42.718Z,20.17
2022-12-08T02:14:15.129Z,27.37
2022-12-08T02:17:11.013Z,32.60
2022-12-08T02:20:10.693Z,24.30
2022-12-08T02:23:29.976Z,20.83
2022-12-08T02:26:07.933Z,18.40
2022-12-08T02:29:05.661Z,20.07
2022-12-08T02:32:02.514Z,18.97
2022-12-08T02:34:57.597Z,24.10
2022-12-08T02:37:46.329Z,22.40
2022-12-08T02:40:23.573Z,22.93
2022-12-08T02:43:00.493Z,17.13
2022-12-08T02:45:37.641Z,26.70
2022-12-08T02:48:10.206Z,20.03
2022-12-08T02:50:42.358Z,28.33
2022-12-08T02:55:53.637Z,19.87
2022-12-08T02:58:41.851Z,22.30
2022-12-08T03:01:44.729Z,18.20
2022-12-08T03:04:26.644Z,21.17
2022-12-08T03:07:14.756Z,18.90
2022-12-08T03:10:16.606Z,16.30
2022-12-08T03:13:13.878Z,17.10
2022-12-08T03:15:49.096Z,16.50
2022-12-08T03:18:25.687Z,19.63
2022-12-08T03:20:58.560Z,12.80
2022-12-08T03:23:31.205Z,14.37
2022-12-08T03:26:18.241Z,15.63
2022-12-08T03:28:50.282Z,18.10
2022-12-08T03:31:25.395Z,15.83
2022-12-08T03:33:59.880Z,13.60
2022-12-08T03:36:32.365Z,18.10
2022-12-08T03:39:04.104Z,14.97
2022-12-08T03:41:35.938Z,12.77
2022-12-08T03:44:07.747Z,13.00
2022-12-08T03:46:39.469Z,14.10
2022-12-08T03:49:11.329Z,13.57
2022-12-08T03:51:43.447Z,11.93
2022-12-08T03:54:15.203Z,10.67
2022-12-08T03:56:46.999Z,10.97
2022-12-08T03:59:18.761Z,11.73
2022-12-08T04:01:50.572Z,11.73
2022-12-08T04:04:22.375Z,15.70
2022-12-08T04:06:54.107Z,14.40
2022-12-08T04:09:25.856Z,10.40
2022-12-08T04:11:57.585Z,13.70
2022-12-08T04:14:29.413Z,12.27
2022-12-08T04:17:01.102Z,15.60
2022-12-08T04:19:32.830Z,14.17
2022-12-08T04:22:04.654Z,14.33
2022-12-08T04:24:36.344Z,14.10
2022-12-08T04:27:08.112Z,12.43
2022-12-08T04:29:39.842Z,11.63
2022-12-08T04:32:11.566Z,9.47
2022-12-08T04:34:43.339Z,13.23
2022-12-08T04:37:15.079Z,13.83
2022-12-08T04:39:46.802Z,11.00
2022-12-08T04:42:18.525Z,17.47
2022-12-08T04:44:50.242Z,15.63
2022-12-08T04:47:22.246Z,11.50
2022-12-08T04:49:53.901Z,13.33
2022-12-08T04:52:25.810Z,13.80
2022-12-08T04:54:57.505Z,11.73
2022-12-08T04:57:29.389Z,13.77
2022-12-08T05:00:01.134Z,11.87
2022-12-08T05:02:33.058Z,10.40
2022-12-08T05:05:05.657Z,17.83
2022-12-08T05:07:37.532Z,10.23
2022-12-08T05:10:09.425Z,15.53
2022-12-08T05:12:41.149Z,11.90
2022-12-08T05:15:12.858Z,9.40
2022-12-08T05:17:44.535Z,8.07
2022-12-08T05:20:16.220Z,9.93
2022-12-08T05:22:47.918Z,10.80
2022-12-08T05:25:19.714Z,11.07
2022-12-08T05:27:51.460Z,13.70
2022-12-08T05:30:23.196Z,8.90
2022-12-08T05:32:54.862Z,10.10
2022-12-08T05:35:26.517Z,10.27
2022-12-08T05:37:58.201Z,9.37
2022-12-08T05:40:29.873Z,12.03
2022-12-08T05:43:01.573Z,14.50
2022-12-08T05:45:33.953Z,14.37
2022-12-08T05:48:05.958Z,17.33
2022-12-08T05:50:37.717Z,11.90
2022-12-08T05:53:09.424Z,10.67
2022-12-08T05:55:41.331Z,8.77
2022-12-08T05:58:19.204Z,8.87
2022-12-08T06:00:51.250Z,11.23
2022-12-08T06:03:23.274Z,11.20
2022-12-08T06:05:55.097Z,15.47
2022-12-08T06:08:26.872Z,11.07
2022-12-08T06:10:58.570Z,14.85
2022-12-08T06:13:30.308Z,15.10
2022-12-08T06:16:06.805Z,11.60
2022-12-08T06:18:38.635Z,13.87
2022-12-08T06:21:13.325Z,17.47
2022-12-08T06:23:47.574Z,10.53
2022-12-08T06:26:20.460Z,12.97
2022-12-08T06:28:52.833Z,13.63
2022-12-08T06:31:26.265Z,14.13
2022-12-08T06:33:58.116Z,9.70
2022-12-08T06:36:29.926Z,11.13
2022-12-08T06:39:02.054Z,8.50
2022-12-08T06:41:53.815Z,12.60
2022-12-08T06:44:25.605Z,10.30
2022-12-08T06:46:57.393Z,12.80
2022-12-08T06:49:29.162Z,14.83
2022-12-08T06:52:00.927Z,20.00
2022-12-08T06:54:32.669Z,15.60
2022-12-08T06:57:04.629Z,15.50
2022-12-08T06:59:36.491Z,16.33
2022-12-08T07:02:09.444Z,15.97
2022-12-08T07:04:41.222Z,14.47
2022-12-08T07:07:12.970Z,14.40
2022-12-08T07:09:44.694Z,11.03
2022-12-08T07:12:16.429Z,17.17
2022-12-08T07:14:48.145Z,11.57
2022-12-08T07:17:19.930Z,17.33
2022-12-08T07:19:51.587Z,12.07
2022-12-08T07:22:23.331Z,10.57
2022-12-08T07:24:55.050Z,12.50
2022-12-08T07:27:26.714Z,11.30
2022-12-08T07:29:58.433Z,15.70
2022-12-08T07:32:30.191Z,9.63
2022-12-08T07:35:01.883Z,12.20
2022-12-08T07:37:35.102Z,12.63
2022-12-08T07:40:08.457Z,15.47
2022-12-08T07:42:40.355Z,11.63
2022-12-08T07:45:12.064Z,11.30
2022-12-08T07:47:44.788Z,11.20
2022-12-08T07:50:16.581Z,14.13
2022-12-08T07:52:48.988Z,11.30
2022-12-08T07:55:20.748Z,27.13
2022-12-08T07:57:52.728Z,68.60
2022-12-08T08:00:24.766Z,34.67
2022-12-08T08:02:56.700Z,23.60
2022-12-08T08:05:28.759Z,27.37
2022-12-08T08:08:00.560Z,30.93
2022-12-08T08:10:32.586Z,32.10
2022-12-08T08:13:04.346Z,17.17
2022-12-08T08:15:36.236Z,22.30
2022-12-08T08:18:08.156Z,20.23
2022-12-08T08:20:40.574Z,18.00
2022-12-08T08:23:12.368Z,21.53
2022-12-08T08:25:44.249Z,15.40
2022-12-08T08:28:16.030Z,15.90
2022-12-08T08:30:47.894Z,23.90
2022-12-08T08:33:19.656Z,19.50
2022-12-08T08:35:51.659Z,19.43
2022-12-08T08:38:23.697Z,17.80
2022-12-08T08:40:55.829Z,13.57
2022-12-08T08:43:36.038Z,16.60
2022-12-08T08:46:11.003Z,17.03
2022-12-08T08:48:42.870Z,23.70
2022-12-08T08:51:14.999Z,23.17
2022-12-08T08:53:46.850Z,18.92
2022-12-08T08:56:19.707Z,14.53
2022-12-08T08:58:53.471Z,17.07
2022-12-08T09:01:27.806Z,21.37
2022-12-08T09:03:59.792Z,17.93
2022-12-08T09:06:31.959Z,20.33
2022-12-08T09:09:04.100Z,15.57
2022-12-08T09:11:35.930Z,18.03
2022-12-08T09:14:07.693Z,14.37
2022-12-08T09:16:42.388Z,18.43
2022-12-08T09:19:14.525Z,13.90
2022-12-08T09:21:46.316Z,13.23
2022-12-08T09:24:18.210Z,14.77
2022-12-08T09:26:50.217Z,10.23
2022-12-08T09:29:21.940Z,13.07
2022-12-08T09:31:54.630Z,15.30
2022-12-08T09:34:26.473Z,12.23
2022-12-08T09:36:58.403Z,10.13
2022-12-08T09:39:30.151Z,10.93
2022-12-08T09:42:05.155Z,12.07
2022-12-08T09:44:48.895Z,9.33
2022-12-08T09:47:43.885Z,9.50
2022-12-08T09:50:33.882Z,9.47
2022-12-08T09:53:24.636Z,9.47
2022-12-08T09:56:13.571Z,7.80
2022-12-08T09:58:53.673Z,10.60
2022-12-08T10:01:38.303Z,11.13
2022-12-08T10:04:37.318Z,12.70
2022-12-08T10:07:30.719Z,10.20
2022-12-08T10:10:24.254Z,8.90
2022-12-08T10:13:16.916Z,8.27
2022-12-08T10:15:57.977Z,8.00
2022-12-08T10:18:32.617Z,8.03
2022-12-08T10:21:20.428Z,9.53
2022-12-08T10:23:58.414Z,8.40
2022-12-08T10:26:32.742Z,9.90
2022-12-08T10:29:04.576Z,8.67
2022-12-08T10:31:36.458Z,13.77
2022-12-08T10:34:18.480Z,6.93
2022-12-08T10:36:56.092Z,7.23
2022-12-08T10:39:43.875Z,7.97
2022-12-08T10:42:15.634Z,7.77
2022-12-08T10:45:08.414Z,7.90
2022-12-08T10:47:45.089Z,8.67
2022-12-08T10:50:39.257Z,10.33
2022-12-08T10:53:22.435Z,8.30
2022-12-08T10:56:15.367Z,8.00
2022-12-08T10:58:48.266Z,7.10
2022-12-08T11:01:29.613Z,9.60
2022-12-08T11:04:03.852Z,7.20
2022-12-08T11:06:37.992Z,7.50
2022-12-08T11:09:15.597Z,7.40
2022-12-08T11:11:57.004Z,8.47
2022-12-08T11:14:45.931Z,7.50
2022-12-08T11:17:23.550Z,8.20
2022-12-08T11:19:55.290Z,12.07
2022-12-08T11:22:30.912Z,8.67
2022-12-08T11:25:11.833Z,6.90
2022-12-08T11:27:48.973Z,9.00
2022-12-08T11:30:26.337Z,10.90
2022-12-08T11:33:06.462Z,8.53
2022-12-08T11:35:42.625Z,9.97
2022-12-08T11:38:22.683Z,12.40
2022-12-08T11:41:04.273Z,10.10
2022-12-08T11:43:43.083Z,10.00
2022-12-08T11:46:42.164Z,8.60
2022-12-08T11:49:14.504Z,11.33
2022-12-08T11:52:13.266Z,13.67
2022-12-08T11:54:51.393Z,7.97
2022-12-08T11:57:26.910Z,8.93
2022-12-08T12:00:01.019Z,9.60
2022-12-08T12:02:42.545Z,8.10
2022-12-08T12:06:05.387Z,9.17
2022-12-08T12:09:02.625Z,10.23
2022-12-08T12:12:15.776Z,11.73
2022-12-08T12:15:40.161Z,11.23
2022-12-08T12:18:45.431Z,8.70
2022-12-08T12:21:26.476Z,10.03
2022-12-08T12:24:05.456Z,10.73
2022-12-08T12:26:58.579Z,11.43
2022-12-08T12:29:34.831Z,11.20
2022-12-08T12:32:10.184Z,9.20
2022-12-08T12:34:49.011Z,8.97
2022-12-08T12:37:24.772Z,10.43
2022-12-08T12:40:01.782Z,13.10
2022-12-08T12:42:42.579Z,11.00
2022-12-08T12:45:17.429Z,11.23
2022-12-08T12:47:55.881Z,10.70
2022-12-08T12:50:34.684Z,11.30
2022-12-08T12:53:26.673Z,10.30
2022-12-08T12:56:03.805Z,7.93
2022-12-08T12:58:37.036Z,9.40
2022-12-08T13:01:11.691Z,8.43
2022-12-08T13:03:50.206Z,9.70
2022-12-08T13:06:41.112Z,8.48
2022-12-08T13:09:28.823Z,9.23
2022-12-08T13:12:10.254Z,11.00
2022-12-08T13:14:49.140Z,11.80
2022-12-08T13:17:32.479Z,10.77
2022-12-08T13:20:07.106Z,10.27
2022-12-08T13:22:54.493Z,8.03
2022-12-08T13:25:44.541Z,7.57
2022-12-08T13:28:16.157Z,8.27
2022-12-08T13:30:49.159Z,12.03
2022-12-08T13:33:39.346Z,9.87
2022-12-08T13:36:19.746Z,8.30
2022-12-08T13:38:55.955Z,7.13
2022-12-08T13:41:41.666Z,16.87
2022-12-08T13:47:35.768Z,11.33
2022-12-08T13:54:35.276Z,7.63
2022-12-08T13:59:30.557Z,8.88
2022-12-08T14:02:10.726Z,10.17
2022-12-08T14:05:17.021Z,7.07
2022-12-08T14:07:41.088Z,9.43
2022-12-08T14:10:25.828Z,8.17
2022-12-08T14:13:02.559Z,17.63
2022-12-08T14:15:38.247Z,13.40
2022-12-08T14:18:29.050Z,9.37
2022-12-08T14:21:20.307Z,8.10
2022-12-08T14:23:52.821Z,9.73
2022-12-08T14:26:24.966Z,7.57
2022-12-08T14:28:57.054Z,9.73
2022-12-08T14:31:29.371Z,7.77
2022-12-08T14:34:01.277Z,7.73
2022-12-08T14:36:33.867Z,8.60
2022-12-08T14:39:05.675Z,7.47
2022-12-08T14:41:37.681Z,10.17
2022-12-08T14:44:23.976Z,7.53
2022-12-08T14:47:10.101Z,9.00
2022-12-08T14:49:42.007Z,7.93
2022-12-08T14:52:14.683Z,7.97
2022-12-08T14:54:50.336Z,16.10
2022-12-08T14:57:22.846Z,14.60
2022-12-08T14:59:54.586Z,9.27
2022-12-08T15:02:31.183Z,12.20
2022-12-08T15:05:14.372Z,7.40
2022-12-08T15:07:53.927Z,10.43
2022-12-08T15:10:28.035Z,8.87
2022-12-08T15:13:22.823Z,11.30
2022-12-08T15:15:57.666Z,8.47
2022-12-08T15:18:37.945Z,9.40
2022-12-08T15:21:12.811Z,11.73
2022-12-08T15:23:49.134Z,9.93
2022-12-08T15:26:24.962Z,10.40
2022-12-08T15:28:56.841Z,11.80
2022-12-08T15:31:28.622Z,9.03
2022-12-08T15:34:00.974Z,7.90
2022-12-08T15:36:32.868Z,12.20
2022-12-08T15:39:20.514Z,11.43
2022-12-08T15:41:52.259Z,11.93
2022-12-08T15:44:24.084Z,11.33
2022-12-08T15:46:56.124Z,10.90
2022-12-08T15:49:28.151Z,8.63
2022-12-08T15:52:10.779Z,10.23
2022-12-08T15:54:43.300Z,8.27
2022-12-08T15:57:53.391Z,8.17
2022-12-08T16:09:31.389Z,6.23
2022-12-08T16:12:22.716Z,7.50
2022-12-08T16:17:46.614Z,12.27
2022-12-08T16:20:20.109Z,8.77
2022-12-08T16:23:07.939Z,7.40
2022-12-08T16:26:16.849Z,6.90
2022-12-08T16:28:53.979Z,10.63
2022-12-08T16:31:26.621Z,10.83
2022-12-08T16:33:58.349Z,13.53
2022-12-08T16:36:30.060Z,8.83
2022-12-08T16:39:01.931Z,6.40
2022-12-08T16:41:52.398Z,14.47
2022-12-08T16:44:24.098Z,8.33
2022-12-08T16:46:55.758Z,7.73
2022-12-08T16:49:27.524Z,15.53
2022-12-08T16:51:59.297Z,11.70
2022-12-08T16:54:31.073Z,15.20
2022-12-08T16:57:02.824Z,11.90
2022-12-08T16:59:34.621Z,14.67
2022-12-08T17:02:06.289Z,12.07
2022-12-08T17:04:38.020Z,10.10
2022-12-08T17:07:09.729Z,11.73
2022-12-08T17:09:41.501Z,9.33
2022-12-08T17:12:13.215Z,5.90
2022-12-08T17:14:44.989Z,13.00
2022-12-08T17:17:16.763Z,8.60
2022-12-08T17:19:48.442Z,7.70
2022-12-08T17:22:20.121Z,11.63
2022-12-08T17:24:52.214Z,7.03
2022-12-08T17:27:23.985Z,11.83
2022-12-08T17:29:55.766Z,10.53
2022-12-08T17:32:27.661Z,10.87
2022-12-08T17:34:59.446Z,9.30
2022-12-08T17:37:31.158Z,9.80
2022-12-08T17:40:03.639Z,8.53
2022-12-08T17:42:35.733Z,10.10
2022-12-08T17:45:08.640Z,7.77
2022-12-08T17:47:40.521Z,9.57
2022-12-08T17:50:12.244Z,8.83
2022-12-08T17:52:43.965Z,6.67
2022-12-08T17:55:15.622Z,7.30
2022-12-08T17:57:47.499Z,10.50
2022-12-08T18:00:19.492Z,10.98
2022-12-08T18:02:51.285Z,12.07
2022-12-08T18:05:23.373Z,9.80
2022-12-08T18:07:55.384Z,10.17
2022-12-08T18:10:27.238Z,10.30
2022-12-08T18:12:58.982Z,13.40
2022-12-08T18:15:33.592Z,9.60
2022-12-08T18:18:09.240Z,9.20
2022-12-08T18:20:41.028Z,8.23
2022-12-08T18:23:13.788Z,11.77
2022-12-08T18:25:45.770Z,8.80
2022-12-08T18:28:17.564Z,12.97
2022-12-08T18:30:49.381Z,13.35
2022-12-08T18:33:21.048Z,9.27
2022-12-08T18:35:52.846Z,8.60
2022-12-08T18:38:24.555Z,8.37
2022-12-08T18:41:03.397Z,9.10
2022-12-08T18:43:35.873Z,11.23
2022-12-08T18:46:10.524Z,10.83
2022-12-08T18:48:47.354Z,9.82
2022-12-08T18:51:21.735Z,11.47
2022-12-08T18:53:53.425Z,17.27
2022-12-08T18:56:30.918Z,12.97
2022-12-08T18:59:06.157Z,12.00
2022-12-08T19:01:39.803Z,11.63
2022-12-08T19:04:28.670Z,11.80
2022-12-08T19:07:01.553Z,11.37
2022-12-08T19:09:33.390Z,10.00
2022-12-08T19:12:07.019Z,10.50
2022-12-08T19:14:40.568Z,12.27
2022-12-08T19:17:12.378Z,14.55
2022-12-08T19:19:44.156Z,13.13
2022-12-08T19:22:16.258Z,14.80
2022-12-08T19:24:47.986Z,14.88
2022-12-08T19:27:19.813Z,13.93
2022-12-08T19:29:51.514Z,13.37
2022-12-08T19:32:23.267Z,14.50
2022-12-08T19:34:55.465Z,14.13
2022-12-08T19:37:27.437Z,10.40
2022-12-08T19:40:18.443Z,14.20
2022-12-08T19:43:09.083Z,11.73
2022-12-08T19:45:40.867Z,17.80
2022-12-08T19:48:14.018Z,20.17
2022-12-08T19:50:45.794Z,15.17
2022-12-08T19:53:18.758Z,15.10
2022-12-08T19:55:50.926Z,16.03
2022-12-08T19:58:22.814Z,13.00
2022-12-08T20:00:55.271Z,14.90
2022-12-08T20:03:27.001Z,16.33
2022-12-08T20:05:58.946Z,17.15
2022-12-08T20:08:30.770Z,13.63
2022-12-08T20:11:02.617Z,19.90
2022-12-08T20:13:47.850Z,13.77
2022-12-08T20:16:19.705Z,14.43
2022-12-08T20:18:51.460Z,18.37
2022-12-08T20:21:23.281Z,14.43
2022-12-08T20:23:56.068Z,14.20
2022-12-08T20:26:28.045Z,15.13
2022-12-08T20:28:59.874Z,13.33
2022-12-08T20:31:33.306Z,11.87
2022-12-08T20:34:08.250Z,15.27
2022-12-08T20:36:41.235Z,13.33
2022-12-08T20:39:16.858Z,14.50
2022-12-08T20:41:49.290Z,12.73
2022-12-08T20:44:21.002Z,16.20
2022-12-08T20:46:52.785Z,11.43
2022-12-08T20:49:26.315Z,14.87
2022-12-08T20:52:01.663Z,13.60
2022-12-08T20:54:34.337Z,15.93
2022-12-08T20:57:06.936Z,16.27
2022-12-08T20:59:38.869Z,15.37
2022-12-08T21:02:13.753Z,11.83
2022-12-08T21:04:45.756Z,16.53
2022-12-08T21:07:18.093Z,14.20
2022-12-08T21:09:50.228Z,19.80
2022-12-08T21:12:21.936Z,17.33
2022-12-08T21:14:53.731Z,14.80
2022-12-08T21:17:25.666Z,14.33
2022-12-08T21:19:57.690Z,14.07
2022-12-08T21:22:29.495Z,13.40
2022-12-08T21:25:02.298Z,14.53
2022-12-08T21:27:35.832Z,12.70
2022-12-08T21:30:09.060Z,15.87
2022-12-08T21:32:41.235Z,15.37
2022-12-08T21:35:13.091Z,14.90
2022-12-08T21:37:45.014Z,12.35
2022-12-08T21:40:16.775Z,12.70
2022-12-08T21:42:48.976Z,13.20
2022-12-08T21:45:23.905Z,13.67
2022-12-08T21:47:56.094Z,15.77
2022-12-08T21:50:28.589Z,12.07
2022-12-08T21:53:00.581Z,10.13
2022-12-08T21:55:32.569Z,9.27
2022-12-08T21:58:04.455Z,10.67
2022-12-08T22:00:36.329Z,28.57
2022-12-08T22:03:14.003Z,21.23
2022-12-08T22:05:46.391Z,12.50
2022-12-08T22:08:18.565Z,11.55
2022-12-08T22:10:50.286Z,15.87
2022-12-08T22:13:22.039Z,14.93
2022-12-08T22:16:01.516Z,16.73
2022-12-08T22:18:34.702Z,16.20
2022-12-08T22:21:15.901Z,13.07
2022-12-08T22:23:48.339Z,8.70
2022-12-08T22:26:20.074Z,9.07
2022-12-08T22:28:53.080Z,7.93
2022-12-08T22:31:24.986Z,10.47
2022-12-08T22:33:59.060Z,10.37
2022-12-08T22:36:30.980Z,7.73
2022-12-08T22:39:04.162Z,10.20
2022-12-08T22:41:37.840Z,6.67
2022-12-08T22:44:09.603Z,6.60
2022-12-08T22:46:41.496Z,8.33
2022-12-08T22:49:13.224Z,8.00
2022-12-08T22:51:45.749Z,7.80
2022-12-08T22:54:18.176Z,8.63
2022-12-08T22:56:50.123Z,22.10
2022-12-08T22:59:23.573Z,19.37
2022-12-08T23:01:55.412Z,23.90
2022-12-08T23:04:27.444Z,29.80
2022-12-08T23:06:59.338Z,58.97
2022-12-08T23:09:31.311Z,26.58
2022-12-08T23:12:03.756Z,19.07
2022-12-08T23:14:35.622Z,9.37
2022-12-08T23:17:08.211Z,8.53
2022-12-08T23:19:40.311Z,12.03
2022-12-08T23:22:12.050Z,7.17
2022-12-08T23:24:43.954Z,8.10
2022-12-08T23:27:15.787Z,6.00
2022-12-08T23:29:47.913Z,10.60
2022-12-08T23:32:19.828Z,25.70
2022-12-08T23:34:51.572Z,21.17
2022-12-08T23:37:23.337Z,18.77
2022-12-08T23:39:56.105Z,21.83
2022-12-08T23:42:30.129Z,18.93
2022-12-08T23:45:04.895Z,16.57
2022-12-08T23:47:37.087Z,18.63
2022-12-08T23:50:09.944Z,21.50
2022-12-08T23:52:42.280Z,26.57
2022-12-08T23:55:14.139Z,17.57
2022-12-08T23:57:47.322Z,10.30
